Ashfield, Massachusetts
Current Conditions -  °F | °C
As of 10:52 PM on Friday 31 Oct 2014 (Local Time) from KAQW Reporting Station
Overcast Overcast  
Wind Chill: 41°   Ceiling: 5000
Heat Index: 45°   Visibility: 10mi
Dew Point: 35°   Wind: 8mph
Humidity: 68%   Direction: 100°E
Pressure: 29.97"   Gusts: NA
Location:  42.53°N, 72.79°W
Report Text: KAQW 010252Z AUTO 10007KT 10SM FEW027 OVC050 07/02 A2997 RMK AO2 SLP152 T00720017 58003
Loading
Personal Weather Stations






























Interactive Weather Map
Tropical Storm Tracking
New forecast layout! Learn more

10-Day Weather Forecast

Advertisements
Track Severe Weather on mobile